Time;durP1;ratioP1;P1;durP2;ratioP2;P2;SDS_P1;SDS_P2;PMS_P1;PMS_P2;Temp;Humidity;BMP_temperature;BMP_pressure;BME280_temperature;BME280_humidity;BME280_pressure;Samples;Min_cycle;Max_cycle;Signal;HPM_P1;HPM_P2
2023/04/10 00:01:38;;;;;;;0.60;0.20;;;;;;;8.43;60.54;101421.53;5027956;28;20108;-76
2023/04/10 00:04:04;;;;;;;0.40;0.20;;;;;;;8.39;60.70;101430.47;5030474;28;20072;-78
2023/04/10 00:06:31;;;;;;;0.40;0.20;;;;;;;8.38;60.61;101419.25;5027490;28;20502;-76
2023/04/10 00:08:59;;;;;;;0.45;0.20;;;;;;;8.41;60.26;101413.03;5022885;28;20041;-77
2023/04/10 00:11:26;;;;;;;0.90;0.20;;;;;;;8.39;60.59;101414.91;5032608;28;20032;-76
2023/04/10 00:13:52;;;;;;;0.73;0.30;;;;;;;8.38;60.37;101406.28;5032699;28;20156;-76
2023/04/10 00:16:18;;;;;;;0.43;0.20;;;;;;;8.36;60.41;101402.13;5024598;28;20368;-77
2023/04/10 00:18:43;;;;;;;0.60;0.30;;;;;;;8.34;60.78;101402.25;5028558;28;20033;-77
2023/04/10 00:21:09;;;;;;;0.35;0.20;;;;;;;8.27;61.02;101393.19;5027995;28;20103;-77
2023/04/10 00:23:34;;;;;;;0.52;0.20;;;;;;;8.28;60.79;101393.06;5026958;28;20549;-77
2023/04/10 00:26:00;;;;;;;1.02;0.20;;;;;;;8.24;61.20;101388.19;5032341;28;20030;-77
2023/04/10 00:28:26;;;;;;;0.68;0.20;;;;;;;8.18;61.43;101391.22;5029123;28;20026;-77
2023/04/10 00:30:51;;;;;;;0.40;0.20;;;;;;;8.14;61.46;101385.41;5027636;28;20037;-77
2023/04/10 00:33:17;;;;;;;0.50;0.20;;;;;;;8.12;61.65;101381.25;5025205;28;20033;-77
2023/04/10 00:35:42;;;;;;;0.43;0.20;;;;;;;8.06;61.79;101382.50;5029118;28;20026;-77
2023/04/10 00:38:07;;;;;;;0.40;0.20;;;;;;;8.07;61.88;101385.94;5030311;28;20094;-77
2023/04/10 00:40:33;;;;;;;0.45;0.20;;;;;;;8.04;61.94;101380.97;5020215;28;20430;-77
2023/04/10 00:42:59;;;;;;;0.57;0.20;;;;;;;8.02;62.21;101369.88;5033216;28;20046;-77
2023/04/10 00:45:24;;;;;;;0.77;0.28;;;;;;;7.98;62.61;101382.25;5033594;28;20025;-76
2023/04/10 00:47:50;;;;;;;0.73;0.20;;;;;;;7.93;62.90;101379.97;5029340;28;20083;-76
2023/04/10 00:50:16;;;;;;;0.93;0.20;;;;;;;7.88;63.02;101376.84;5032990;28;20034;-77
2023/04/10 00:52:41;;;;;;;0.60;0.43;;;;;;;7.87;62.77;101376.94;5025230;28;20025;-77
2023/04/10 00:55:08;;;;;;;0.50;0.30;;;;;;;7.87;62.71;101377.78;5029648;28;20118;-78
2023/04/10 00:57:34;;;;;;;0.68;0.30;;;;;;;7.95;62.41;101382.44;5024719;28;20041;-77
2023/04/10 01:00:00;;;;;;;0.65;0.20;;;;;;;7.89;62.95;101390.66;5015974;28;20488;-78
2023/04/10 01:02:25;;;;;;;0.80;0.20;;;;;;;7.84;63.12;101392.72;5017679;28;20064;-77
2023/04/10 01:04:51;;;;;;;0.55;0.20;;;;;;;7.75;63.64;101382.97;5025528;28;20129;-77
2023/04/10 01:07:35;;;;;;;0.82;0.30;;;;;;;7.68;63.86;101387.72;5027378;28;20083;-77
2023/04/10 01:10:35;;;;;;;0.70;0.25;;;;;;;7.65;64.10;101393.13;5030475;28;20041;-77
2023/04/10 01:13:38;;;;;;;0.60;0.30;;;;;;;7.54;64.95;101383.50;5027895;28;20090;-77
2023/04/10 01:16:18;;;;;;;0.63;0.25;;;;;;;7.45;65.02;101385.88;5026674;28;20036;-77
2023/04/10 01:18:56;;;;;;;0.47;0.20;;;;;;;7.27;65.39;101393.09;5030793;28;20021;-77
2023/04/10 01:21:22;;;;;;;1.23;0.22;;;;;;;7.12;66.06;101384.53;5031661;28;20026;-78
2023/04/10 01:24:13;;;;;;;0.60;0.25;;;;;;;7.14;66.86;101392.22;5025093;28;20036;-78
2023/04/10 01:26:48;;;;;;;0.90;0.30;;;;;;;7.07;67.00;101391.81;5029636;28;20032;-78
2023/04/10 01:29:19;;;;;;;0.70;0.20;;;;;;;7.00;66.92;101390.53;5026448;28;20064;-78
2023/04/10 01:32:02;;;;;;;1.20;0.32;;;;;;;6.77;68.92;101394.59;5022648;28;20030;-78
2023/04/10 01:34:46;;;;;;;0.65;0.30;;;;;;;6.59;69.27;101385.41;5025394;28;20022;-78
2023/04/10 01:37:20;;;;;;;0.80;0.28;;;;;;;6.35;70.36;101381.75;5024661;28;20099;-78
2023/04/10 01:39:53;;;;;;;1.17;0.32;;;;;;;6.63;68.93;101381.69;5025404;28;20064;-78
2023/04/10 01:42:20;;;;;;;1.60;0.30;;;;;;;7.05;66.52;101377.28;5030646;28;20071;-77
2023/04/10 01:44:47;;;;;;;0.57;0.30;;;;;;;7.39;64.80;101371.53;5024330;28;20468;-77
2023/04/10 01:47:17;;;;;;;1.20;0.30;;;;;;;7.52;64.20;101372.41;5027514;28;20089;-78
2023/04/10 01:49:45;;;;;;;0.50;0.30;;;;;;;7.59;63.74;101375.38;5031290;28;20030;-77
2023/04/10 01:52:13;;;;;;;0.80;0.30;;;;;;;7.61;63.55;101376.94;5033181;28;20030;-79
2023/04/10 01:54:38;;;;;;;1.02;0.40;;;;;;;7.57;63.72;101369.47;5031363;28;20433;-78
2023/04/10 01:57:04;;;;;;;0.60;0.30;;;;;;;7.58;63.84;101376.31;5035341;28;20029;-78
2023/04/10 01:59:30;;;;;;;1.25;0.30;;;;;;;7.58;63.29;101373.72;5031749;28;20120;-77
2023/04/10 02:02:00;;;;;;;0.60;0.30;;;;;;;7.54;63.83;101380.91;5032772;28;20041;-78
2023/04/10 02:04:26;;;;;;;1.75;0.30;;;;;;;7.48;64.03;101376.13;5033445;28;20087;-77
2023/04/10 02:07:03;;;;;;;0.70;0.30;;;;;;;7.37;64.64;101377.75;5036927;28;20033;-77
2023/04/10 02:09:46;;;;;;;0.50;0.30;;;;;;;7.22;65.22;101389.97;5034399;28;20152;-77
2023/04/10 02:12:21;;;;;;;0.98;0.50;;;;;;;7.16;64.98;101377.41;5033633;28;20025;-78
2023/04/10 02:14:49;;;;;;;0.93;0.40;;;;;;;7.14;65.04;101382.69;5037510;28;20145;-77
2023/04/10 02:17:19;;;;;;;0.70;0.30;;;;;;;7.08;65.27;101377.94;5033098;28;20059;-77
2023/04/10 02:19:47;;;;;;;0.50;0.30;;;;;;;7.00;65.64;101380.19;5034134;28;20478;-77
2023/04/10 02:22:15;;;;;;;1.25;0.50;;;;;;;6.89;65.94;101383.47;5032721;28;20025;-77
2023/04/10 02:24:40;;;;;;;0.70;0.30;;;;;;;6.75;66.60;101387.84;5035411;28;20446;-77
2023/04/10 02:27:05;;;;;;;0.73;0.30;;;;;;;6.58;67.31;101376.81;5034856;28;20033;-77
2023/04/10 02:29:31;;;;;;;0.80;0.40;;;;;;;6.47;68.51;101378.41;5030869;28;20121;-78
2023/04/10 02:31:56;;;;;;;0.80;0.40;;;;;;;6.28;69.18;101376.97;5030026;28;20025;-77
2023/04/10 02:34:22;;;;;;;1.10;0.50;;;;;;;6.01;70.80;101383.00;5031330;28;20156;-78
2023/04/10 02:36:47;;;;;;;0.88;0.30;;;;;;;5.85;71.97;101380.47;5030815;28;20029;-78
2023/04/10 02:39:12;;;;;;;1.02;0.40;;;;;;;5.72;72.70;101382.13;5037631;28;20033;-78
2023/04/10 02:41:38;;;;;;;0.88;0.40;;;;;;;5.57;73.63;101379.53;5030696;28;20512;-78
2023/04/10 02:44:03;;;;;;;0.80;0.30;;;;;;;5.46;74.42;101387.09;5032378;28;20082;-79
2023/04/10 02:46:29;;;;;;;0.63;0.32;;;;;;;5.34;74.69;101386.03;5027291;28;20471;-78
2023/04/10 02:48:54;;;;;;;1.02;0.50;;;;;;;5.26;75.72;101379.63;5031577;28;20029;-78
2023/04/10 02:51:20;;;;;;;0.90;0.30;;;;;;;5.17;75.85;101378.44;5030083;28;20033;-78
2023/04/10 02:53:47;;;;;;;1.05;0.50;;;;;;;5.13;76.41;101374.38;5028309;28;20029;-78
2023/04/10 02:56:12;;;;;;;0.90;0.47;;;;;;;5.14;76.41;101370.03;5024382;28;20052;-78
2023/04/10 02:58:38;;;;;;;1.20;0.50;;;;;;;5.13;75.90;101374.38;5033401;28;20064;-79
2023/04/10 03:01:08;;;;;;;1.73;0.60;;;;;;;5.09;76.18;101372.88;5030568;28;20109;-79
2023/04/10 03:03:33;;;;;;;2.22;0.63;;;;;;;5.14;76.51;101367.44;5033087;28;20072;-78
2023/04/10 03:05:59;;;;;;;1.23;0.60;;;;;;;5.12;75.81;101367.53;5030584;28;20029;-78
2023/04/10 03:08:24;;;;;;;1.73;0.60;;;;;;;5.15;75.29;101364.78;5023521;28;20026;-79
2023/04/10 03:10:50;;;;;;;1.25;0.73;;;;;;;5.25;74.78;101365.06;5028460;28;20167;-78
2023/04/10 03:13:15;;;;;;;1.60;0.60;;;;;;;5.24;74.78;101361.66;5031111;28;20028;-78
2023/04/10 03:15:41;;;;;;;1.75;0.82;;;;;;;5.20;75.33;101356.78;5031776;28;20386;-78
2023/04/10 03:18:07;;;;;;;2.35;1.10;;;;;;;5.39;74.83;101354.75;5028553;28;20174;-78
2023/04/10 03:20:35;;;;;;;1.30;0.77;;;;;;;5.29;75.18;101358.78;5028959;28;20080;-78
2023/04/10 03:23:02;;;;;;;1.42;0.70;;;;;;;5.31;74.73;101352.63;5030946;28;20044;-78
2023/04/10 03:25:27;;;;;;;1.35;0.63;;;;;;;5.58;73.33;101351.94;5030960;28;20052;-78
2023/04/10 03:27:53;;;;;;;1.27;0.88;;;;;;;5.58;73.28;101352.78;5034479;28;20040;-78
2023/04/10 03:30:18;;;;;;;1.58;0.88;;;;;;;5.54;73.28;101353.88;5028527;28;20040;-79
2023/04/10 03:32:43;;;;;;;1.45;0.90;;;;;;;5.58;73.21;101360.53;5028295;28;20048;-79
2023/04/10 03:35:09;;;;;;;1.30;0.60;;;;;;;5.56;73.35;101357.19;5033361;28;20455;-78
2023/04/10 03:37:35;;;;;;;1.65;0.93;;;;;;;5.46;73.93;101358.66;5029809;28;20045;-78
2023/04/10 03:40:05;;;;;;;1.92;1.00;;;;;;;5.26;74.83;101362.38;5022574;28;20026;-78
2023/04/10 03:42:30;;;;;;;1.30;0.80;;;;;;;5.09;75.58;101372.03;5024149;28;20096;-78
2023/04/10 03:44:55;;;;;;;2.33;0.77;;;;;;;5.00;76.55;101363.06;5028843;28;20033;-78
2023/04/10 03:47:21;;;;;;;1.85;1.05;;;;;;;4.90;76.79;101361.91;5025055;28;20033;-78
2023/04/10 03:49:46;;;;;;;1.20;0.65;;;;;;;4.80;78.07;101371.09;5027929;28;20040;-79
2023/04/10 03:52:11;;;;;;;2.72;1.50;;;;;;;4.70;78.33;101365.63;5026203;28;20124;-79
2023/04/10 03:54:37;;;;;;;1.70;1.10;;;;;;;4.61;78.59;101368.72;5026156;28;20037;-78
2023/04/10 03:57:02;;;;;;;2.03;1.00;;;;;;;4.55;79.33;101369.88;5028349;28;20040;-79
2023/04/10 03:59:28;;;;;;;2.35;1.17;;;;;;;4.51;79.63;101370.13;5022153;28;20044;-79
2023/04/10 04:01:53;;;;;;;6.15;1.20;;;;;;;4.46;79.86;101356.63;5025881;28;20480;-79
2023/04/10 04:04:18;;;;;;;2.80;1.55;;;;;;;4.55;80.24;101366.47;5028761;28;20029;-78
2023/04/10 04:06:44;;;;;;;1.77;1.05;;;;;;;4.56;79.38;101378.44;5024752;28;20021;-79
2023/04/10 04:09:09;;;;;;;1.48;1.10;;;;;;;4.60;79.42;101379.94;5025502;28;20120;-79
2023/04/10 04:11:34;;;;;;;2.70;1.20;;;;;;;4.59;80.21;101379.13;5023139;28;20026;-78
2023/04/10 04:14:00;;;;;;;3.20;2.28;;;;;;;4.58;79.97;101382.63;5020898;28;20402;-79
2023/04/10 04:16:26;;;;;;;2.00;1.35;;;;;;;4.48;80.10;101375.44;5031685;28;20037;-78
2023/04/10 04:18:51;;;;;;;2.63;1.70;;;;;;;4.47;80.53;101384.09;5020861;28;20117;-77
2023/04/10 04:21:17;;;;;;;2.03;1.02;;;;;;;4.43;80.60;101382.59;5026858;28;20737;-78
2023/04/10 04:23:42;;;;;;;2.13;1.05;;;;;;;4.34;81.34;101373.59;5031688;28;20033;-78
2023/04/10 04:26:07;;;;;;;1.88;1.13;;;;;;;4.38;81.58;101385.44;5025011;28;20038;-78
2023/04/10 04:28:33;;;;;;;2.53;1.40;;;;;;;4.42;81.01;101380.94;5024579;28;20463;-79
2023/04/10 04:30:58;;;;;;;2.45;1.00;;;;;;;4.31;81.71;101390.09;5024817;28;20122;-79
2023/04/10 04:33:24;;;;;;;1.85;1.02;;;;;;;4.21;82.28;101388.94;5028110;28;20056;-78
2023/04/10 04:35:49;;;;;;;2.65;1.00;;;;;;;4.12;82.75;101389.41;5025241;28;20045;-78
2023/04/10 04:38:15;;;;;;;1.55;0.98;;;;;;;4.07;83.29;101391.41;5025424;28;20506;-79
2023/04/10 04:40:41;;;;;;;3.25;1.70;;;;;;;4.05;83.81;101400.97;5032074;28;20046;-79
2023/04/10 04:43:06;;;;;;;5.28;3.95;;;;;;;4.06;83.77;101400.06;5029269;28;20037;-78
2023/04/10 04:45:32;;;;;;;3.72;1.67;;;;;;;4.09;84.24;101392.16;5032236;28;20148;-78
2023/04/10 04:47:57;;;;;;;3.63;1.58;;;;;;;4.08;84.40;101403.38;5032243;28;20057;-78
2023/04/10 04:50:22;;;;;;;2.83;1.52;;;;;;;4.08;84.26;101393.06;5030053;28;20044;-78
2023/04/10 04:52:48;;;;;;;2.70;1.85;;;;;;;4.14;83.90;101397.06;5029125;28;20087;-78
2023/04/10 04:55:13;;;;;;;4.10;1.80;;;;;;;4.27;83.81;101405.81;5028186;28;20032;-79
2023/04/10 04:57:39;;;;;;;4.80;1.92;;;;;;;4.33;83.85;101414.06;5028713;28;20494;-78
2023/04/10 05:00:05;;;;;;;2.88;1.55;;;;;;;4.47;82.51;101404.75;5028956;28;20033;-79
2023/04/10 05:02:30;;;;;;;2.85;1.42;;;;;;;4.56;81.55;101409.44;5028117;28;20037;-78
2023/04/10 05:04:55;;;;;;;3.40;2.15;;;;;;;4.57;81.16;101416.25;5027933;28;20052;-78
2023/04/10 05:07:21;;;;;;;2.50;1.52;;;;;;;4.60;81.62;101416.09;5026944;28;20025;-78
2023/04/10 05:09:46;;;;;;;4.60;3.22;;;;;;;4.62;82.40;101411.69;5022871;28;20099;-78
2023/04/10 05:12:12;;;;;;;1.80;1.15;;;;;;;4.64;81.41;101421.00;5028200;28;20043;-79
2023/04/10 05:14:37;;;;;;;3.80;2.03;;;;;;;4.74;80.63;101415.31;5028007;28;20111;-77
2023/04/10 05:17:02;;;;;;;3.55;1.80;;;;;;;4.83;81.43;101418.22;5036371;28;20120;-77
2023/04/10 05:19:28;;;;;;;3.17;2.20;;;;;;;4.87;80.80;101406.81;5032492;28;20030;-78
2023/04/10 05:21:53;;;;;;;4.70;2.63;;;;;;;4.91;81.61;101420.38;5030436;28;20036;-76
2023/04/10 05:24:19;;;;;;;3.35;2.05;;;;;;;4.84;80.87;101424.22;5027235;28;20037;-77
2023/04/10 05:26:44;;;;;;;3.13;2.15;;;;;;;4.98;80.41;101422.56;5028636;28;20508;-77
2023/04/10 05:29:10;;;;;;;3.20;2.50;;;;;;;5.14;80.47;101419.94;5031128;28;20108;-78
2023/04/10 05:31:35;;;;;;;6.28;2.90;;;;;;;5.30;80.38;101422.47;5032539;28;20361;-76
2023/04/10 05:34:00;;;;;;;3.33;2.33;;;;;;;5.44;80.55;101430.28;5033949;28;20073;-76
2023/04/10 05:36:26;;;;;;;3.95;2.30;;;;;;;5.48;79.67;101425.78;5026643;28;20129;-77
2023/04/10 05:38:51;;;;;;;4.93;3.45;;;;;;;5.49;79.36;101427.44;5027884;28;20033;-76
2023/04/10 05:41:17;;;;;;;5.95;3.97;;;;;;;5.61;79.37;101424.16;5029116;28;20083;-76
2023/04/10 05:43:42;;;;;;;5.22;3.88;;;;;;;5.74;78.80;101426.81;5030003;28;20113;-76
2023/04/10 05:46:07;;;;;;;4.75;3.17;;;;;;;5.87;79.02;101418.25;5034040;28;20106;-76
2023/04/10 05:48:33;;;;;;;5.18;3.45;;;;;;;5.91;78.81;101426.69;5030975;28;20853;-76
2023/04/10 05:50:58;;;;;;;4.85;3.05;;;;;;;5.99;78.00;101422.72;5028827;28;20155;-76
2023/04/10 05:53:31;;;;;;;4.40;3.00;;;;;;;6.12;79.00;101420.25;5023906;28;20040;-76
2023/04/10 05:55:58;;;;;;;4.55;3.38;;;;;;;6.21;79.20;101432.59;5034455;28;20112;-76
2023/04/10 05:58:27;;;;;;;4.78;3.67;;;;;;;6.26;78.31;101427.97;5034817;28;20105;-76
2023/04/10 06:00:53;;;;;;;4.30;3.13;;;;;;;6.42;79.24;101424.47;5035823;28;20021;-76
2023/04/10 06:03:18;;;;;;;3.70;2.40;;;;;;;6.53;78.83;101435.81;5033022;28;20037;-76
2023/04/10 06:05:44;;;;;;;2.88;2.15;;;;;;;6.69;77.45;101432.25;5029614;28;20067;-76
2023/04/10 06:08:10;;;;;;;3.75;2.30;;;;;;;6.96;75.24;101440.91;5034832;28;20037;-76
2023/04/10 06:10:35;;;;;;;2.88;1.98;;;;;;;7.22;74.90;101428.84;5035476;28;20033;-76
2023/04/10 06:13:02;;;;;;;2.42;1.55;;;;;;;7.43;74.42;101434.41;5028819;28;20057;-75
2023/04/10 06:15:28;;;;;;;2.05;1.60;;;;;;;7.54;73.67;101432.78;5033298;28;20026;-75
2023/04/10 06:17:54;;;;;;;1.63;0.90;;;;;;;7.75;72.81;101433.09;5034947;28;20458;-76
2023/04/10 06:20:19;;;;;;;1.80;1.10;;;;;;;8.01;71.26;101436.53;5034425;28;20071;-75
2023/04/10 06:22:45;;;;;;;1.90;1.17;;;;;;;8.26;70.48;101436.50;5036532;28;20057;-76
2023/04/10 06:25:11;;;;;;;1.88;1.33;;;;;;;8.54;69.86;101442.38;5034763;28;20033;-76
2023/04/10 06:27:37;;;;;;;2.03;1.33;;;;;;;8.71;68.72;101436.00;5033144;28;20029;-77
2023/04/10 06:30:02;;;;;;;2.13;1.42;;;;;;;8.90;67.60;101438.97;5027277;28;20425;-77
2023/04/10 06:32:28;;;;;;;2.65;1.85;;;;;;;9.11;66.67;101445.19;5025505;28;20452;-76
2023/04/10 06:34:53;;;;;;;2.15;1.02;;;;;;;9.49;65.79;101433.72;5036587;28;20060;-77
2023/04/10 06:37:18;;;;;;;3.25;1.60;;;;;;;9.78;64.99;101423.75;5036206;28;20461;-76
2023/04/10 06:39:44;;;;;;;1.95;1.50;;;;;;;9.88;64.11;101435.97;5037124;28;20111;-76
2023/04/10 06:42:09;;;;;;;1.60;1.10;;;;;;;9.97;63.67;101424.00;5032544;28;20067;-76
2023/04/10 06:44:35;;;;;;;2.30;1.40;;;;;;;10.09;62.62;101424.84;5037151;28;20032;-76
2023/04/10 06:47:00;;;;;;;1.75;0.85;;;;;;;10.40;62.17;101431.16;5035507;28;20030;-75
2023/04/10 06:49:26;;;;;;;1.70;0.77;;;;;;;10.73;61.63;101428.47;5030485;28;20061;-76
2023/04/10 06:51:51;;;;;;;2.08;1.05;;;;;;;11.03;60.78;101432.19;5030896;28;20036;-76
2023/04/10 06:54:16;;;;;;;4.07;0.80;;;;;;;11.30;60.07;101427.34;5019634;28;20037;-76
2023/04/10 06:56:42;;;;;;;2.22;0.65;;;;;;;11.48;58.99;101433.63;5030358;28;20029;-76
2023/04/10 06:59:07;;;;;;;2.17;1.00;;;;;;;11.49;58.44;101414.41;5029767;28;20040;-74
2023/04/10 07:01:33;;;;;;;1.63;1.20;;;;;;;11.53;58.42;101414.97;5029930;28;20167;-73
2023/04/10 07:03:58;;;;;;;2.40;0.80;;;;;;;11.40;56.92;101422.16;5028024;28;20041;-73
2023/04/10 07:06:23;;;;;;;2.22;1.00;;;;;;;11.66;57.24;101415.63;5032338;28;20049;-73
2023/04/10 07:08:49;;;;;;;1.50;0.85;;;;;;;11.83;56.30;101409.00;5029744;28;20497;-72
2023/04/10 07:11:15;;;;;;;1.10;0.60;;;;;;;12.02;56.52;101414.31;5026193;28;20045;-73
2023/04/10 07:13:40;;;;;;;2.33;1.00;;;;;;;12.30;55.77;101421.44;5027286;28;20417;-73
2023/04/10 07:16:09;;;;;;;1.80;0.88;;;;;;;12.53;55.28;101423.84;5028218;28;20029;-74
2023/04/10 07:18:37;;;;;;;1.30;0.80;;;;;;;12.72;54.97;101416.06;5028344;28;20030;-74
2023/04/10 07:21:09;;;;;;;1.30;0.85;;;;;;;13.00;54.57;101416.19;5028560;28;20056;-74
2023/04/10 07:23:34;;;;;;;1.13;0.85;;;;;;;13.12;53.70;101425.56;5028788;28;20087;-72
2023/04/10 07:26:00;;;;;;;1.20;0.80;;;;;;;12.93;53.58;101421.16;5025215;28;20072;-70
2023/04/10 07:28:25;;;;;;;2.08;0.80;;;;;;;13.15;53.03;101431.34;5025589;28;20120;-73
2023/04/10 07:30:51;;;;;;;1.17;0.70;;;;;;;13.21;52.27;101419.56;5023128;28;20518;-73
2023/04/10 07:33:16;;;;;;;2.10;1.00;;;;;;;13.26;51.77;101422.56;5025488;28;20037;-73
2023/04/10 07:35:41;;;;;;;1.67;0.88;;;;;;;13.54;51.02;101416.47;5031808;28;20079;-73
2023/04/10 07:38:07;;;;;;;5.65;1.25;;;;;;;13.83;49.44;101419.00;5023458;28;20034;-73
2023/04/10 07:40:32;;;;;;;1.90;0.68;;;;;;;14.64;47.51;101405.28;5026352;28;20117;-70
2023/04/10 07:42:57;;;;;;;1.40;0.60;;;;;;;14.98;46.86;101402.81;5030397;28;20029;-74
2023/04/10 07:45:23;;;;;;;1.45;0.60;;;;;;;15.55;45.58;101389.16;5030193;28;20042;-74
2023/04/10 07:47:48;;;;;;;1.10;0.60;;;;;;;16.08;43.73;101401.28;5028535;28;20033;-74
2023/04/10 07:50:14;;;;;;;0.98;0.68;;;;;;;16.48;41.95;101400.63;5024822;28;20500;-73
2023/04/10 07:52:39;;;;;;;1.40;0.73;;;;;;;16.44;41.10;101403.72;5029342;28;20029;-73
2023/04/10 07:55:05;;;;;;;0.85;0.43;;;;;;;16.39;41.51;101400.75;5029730;28;20080;-73
2023/04/10 07:57:31;;;;;;;1.55;0.77;;;;;;;16.56;41.42;101397.16;5033117;28;20102;-73
2023/04/10 07:59:56;;;;;;;1.63;1.08;;;;;;;15.89;42.65;101397.09;5027569;28;20045;-72
2023/04/10 08:02:21;;;;;;;1.23;0.75;;;;;;;15.28;43.80;101397.97;5030954;28;20392;-73
2023/04/10 08:04:47;;;;;;;2.60;0.80;;;;;;;15.16;44.96;101395.75;5028822;28;20395;-73
2023/04/10 08:07:12;;;;;;;1.10;0.70;;;;;;;15.28;44.95;101400.59;5023384;28;20028;-73
2023/04/10 08:09:38;;;;;;;0.82;0.60;;;;;;;15.30;43.50;101395.22;5024010;28;20037;-74
2023/04/10 08:12:03;;;;;;;2.28;0.63;;;;;;;15.68;42.44;101387.94;5028454;28;20052;-74
2023/04/10 08:14:29;;;;;;;1.33;0.80;;;;;;;15.91;41.52;101389.06;5020500;28;20033;-74
2023/04/10 08:16:54;;;;;;;1.75;1.13;;;;;;;16.15;40.85;101389.16;5028261;28;20033;-74
2023/04/10 08:19:20;;;;;;;1.10;0.65;;;;;;;16.33;39.63;101390.88;5022365;28;20108;-73
2023/04/10 08:21:45;;;;;;;1.30;0.63;;;;;;;16.31;40.37;101390.19;5029661;28;20030;-74
2023/04/10 08:24:10;;;;;;;1.23;0.70;;;;;;;16.06;40.43;101389.31;5024179;28;20037;-73
2023/04/10 08:26:36;;;;;;;1.23;0.47;;;;;;;15.75;39.29;101394.22;5024730;28;20038;-73
2023/04/10 08:29:01;;;;;;;1.20;0.50;;;;;;;15.66;40.24;101387.25;5028899;28;20037;-73
2023/04/10 08:31:27;;;;;;;1.02;0.70;;;;;;;15.96;40.01;101397.31;5024142;28;20033;-73
2023/04/10 08:33:53;;;;;;;1.83;0.68;;;;;;;15.09;39.02;101397.34;5030157;28;20029;-73
2023/04/10 08:36:18;;;;;;;1.02;0.50;;;;;;;14.84;38.91;101385.81;5025597;28;20553;-73
2023/04/10 08:38:45;;;;;;;1.35;0.50;;;;;;;14.51;38.00;101389.91;5028705;28;20739;-72
2023/04/10 08:41:14;;;;;;;1.10;0.63;;;;;;;14.70;38.14;101386.31;5028345;28;20029;-73
2023/04/10 08:43:40;;;;;;;1.08;0.65;;;;;;;15.21;39.02;101380.38;5025541;28;20079;-71
2023/04/10 08:46:06;;;;;;;1.17;0.40;;;;;;;15.56;37.46;101390.84;5029597;28;20046;-73
2023/04/10 08:48:39;;;;;;;0.77;0.40;;;;;;;15.36;36.55;101391.97;5025791;28;20089;-72
2023/04/10 08:51:08;;;;;;;1.92;0.40;;;;;;;14.82;37.27;101387.75;5028073;28;20383;-71
2023/04/10 08:53:39;;;;;;;0.95;0.40;;;;;;;14.66;36.09;101387.56;5028811;28;20365;-73
2023/04/10 08:56:06;;;;;;;1.83;0.45;;;;;;;14.99;36.13;101386.09;5030335;28;20043;-72
2023/04/10 08:58:32;;;;;;;0.90;0.45;;;;;;;15.07;36.18;101380.94;5031980;28;20033;-72
2023/04/10 09:00:58;;;;;;;1.55;0.45;;;;;;;15.05;35.66;101377.63;5028415;28;20076;-72
2023/04/10 09:03:25;;;;;;;0.93;0.43;;;;;;;15.11;35.34;101377.03;5027443;28;20039;-73
2023/04/10 09:05:51;;;;;;;0.90;0.52;;;;;;;14.83;35.28;101387.59;5021602;28;20049;-73
2023/04/10 09:08:17;;;;;;;0.85;0.50;;;;;;;14.71;36.05;101378.28;5021031;28;20039;-72
2023/04/10 09:10:42;;;;;;;1.20;0.60;;;;;;;14.44;36.76;101370.50;5017836;28;20398;-72
2023/04/10 09:13:07;;;;;;;0.90;0.50;;;;;;;14.09;36.94;101373.84;5020297;28;20128;-73
2023/04/10 09:15:59;;;;;;;1.17;0.65;;;;;;;13.86;35.63;101368.94;5014971;28;20034;-73
2023/04/10 09:18:50;;;;;;;1.38;0.50;;;;;;;13.65;36.59;101375.38;5023635;28;20387;-73
2023/04/10 09:21:18;;;;;;;0.90;0.40;;;;;;;13.74;38.43;101369.25;5029849;28;20034;-71
2023/04/10 09:23:45;;;;;;;1.02;0.40;;;;;;;13.74;37.55;101374.50;5025705;28;20549;-73
2023/04/10 09:26:23;;;;;;;0.93;0.60;;;;;;;13.66;37.26;101363.94;5034466;28;20368;-73
2023/04/10 09:29:02;;;;;;;0.95;0.50;;;;;;;13.68;38.30;101362.00;5026423;28;20117;-73
2023/04/10 09:31:37;;;;;;;1.15;0.52;;;;;;;13.91;37.94;101365.91;5033240;28;20040;-73
2023/04/10 09:34:08;;;;;;;0.90;0.40;;;;;;;13.75;38.73;101366.50;5022781;28;20061;-73
2023/04/10 09:36:35;;;;;;;0.80;0.52;;;;;;;13.77;38.53;101363.75;5022610;28;20037;-73
2023/04/10 09:39:01;;;;;;;1.13;0.68;;;;;;;13.66;38.78;101356.09;5030996;28;20032;-73
2023/04/10 09:41:27;;;;;;;1.08;0.40;;;;;;;13.68;38.63;101364.63;5029001;28;20030;-73
2023/04/10 09:44:28;;;;;;;1.20;0.73;;;;;;;13.63;38.41;101364.22;5027090;28;20044;-73
2023/04/10 09:46:54;;;;;;;0.90;0.50;;;;;;;13.75;37.98;101350.78;5021165;28;20051;-73
2023/04/10 09:49:19;;;;;;;1.15;0.60;;;;;;;13.76;37.32;101343.75;5022942;28;20033;-72
2023/04/10 09:51:46;;;;;;;1.25;0.50;;;;;;;13.68;38.08;101335.81;5025060;28;20368;-73
2023/04/10 09:54:11;;;;;;;4.22;0.40;;;;;;;13.67;38.00;101342.84;5027227;28;20112;-73
2023/04/10 09:56:38;;;;;;;1.00;0.60;;;;;;;13.76;37.89;101335.91;5026313;28;20033;-73
2023/04/10 09:59:05;;;;;;;1.10;0.50;;;;;;;13.77;38.32;101329.69;5022593;28;20033;-73
2023/04/10 10:01:35;;;;;;;0.80;0.47;;;;;;;13.80;37.70;101321.56;5020724;28;20056;-73
2023/04/10 10:04:02;;;;;;;1.00;0.60;;;;;;;13.88;37.36;101324.28;5027776;28;20041;-73
2023/04/10 10:06:30;;;;;;;1.50;0.77;;;;;;;13.99;38.01;101311.00;5028043;28;20031;-73
2023/04/10 10:09:00;;;;;;;2.35;1.98;;;;;;;14.16;37.39;101317.25;5029550;28;20132;-73
2023/04/10 10:11:27;;;;;;;2.08;0.80;;;;;;;14.20;38.63;101308.91;5027918;28;20087;-73
2023/04/10 10:13:53;;;;;;;1.08;0.73;;;;;;;14.31;39.55;101310.50;5021881;28;20026;-73
2023/04/10 10:17:00;;;;;;;1.17;0.57;;;;;;;14.23;37.85;101315.66;5028704;28;20040;-73
2023/04/10 10:19:31;;;;;;;1.05;0.50;;;;;;;14.04;38.54;101303.53;4960457;28;20078;-73
2023/04/10 10:22:00;;;;;;;1.10;0.70;;;;;;;14.04;38.36;101302.69;4965842;28;20119;-73
2023/04/10 10:24:27;;;;;;;0.90;0.50;;;;;;;14.35;37.51;101300.56;4965102;28;20090;-71
2023/04/10 10:26:56;;;;;;;1.20;0.50;;;;;;;14.40;36.88;101299.13;4964623;28;20197;-73
2023/04/10 10:29:23;;;;;;;0.88;0.52;;;;;;;14.36;36.66;101291.72;4966052;28;20093;-73
2023/04/10 10:31:48;;;;;;;3.17;0.80;;;;;;;14.44;37.11;101300.53;4964931;28;20050;-73
2023/04/10 10:34:15;;;;;;;0.90;0.40;;;;;;;14.32;37.34;101290.38;4963178;28;20604;-73
2023/04/10 10:36:41;;;;;;;0.90;0.50;;;;;;;14.18;37.45;101289.91;4960905;28;20250;-73
2023/04/10 10:39:33;;;;;;;3.17;2.58;;;;;;;14.10;38.85;101299.50;4961899;28;20090;-73
2023/04/10 10:42:11;;;;;;;3.17;1.60;;;;;;;14.24;37.54;101288.47;4970395;28;20026;-73
2023/04/10 10:44:57;;;;;;;2.25;1.30;;;;;;;14.29;37.72;101284.44;4966247;28;20190;-73
2023/04/10 10:47:27;;;;;;;0.98;0.50;;;;;;;14.32;37.54;101285.13;4958113;28;20141;-74
2023/04/10 10:49:54;;;;;;;1.02;0.60;;;;;;;14.09;38.22;101290.81;4989308;28;20114;-74
2023/04/10 10:52:38;;;;;;;1.33;0.70;;;;;;;14.18;38.27;101284.66;5023931;28;20076;-73
2023/04/10 10:55:24;;;;;;;2.00;0.90;;;;;;;14.17;37.95;101279.59;5026287;28;20030;-73
2023/04/10 10:57:56;;;;;;;1.75;1.23;;;;;;;14.14;38.31;101267.59;5020770;28;20132;-71
2023/04/10 11:00:24;;;;;;;1.00;0.55;;;;;;;14.14;38.29;101262.38;5024905;28;20049;-74
2023/04/10 11:03:09;;;;;;;1.98;1.30;;;;;;;14.23;38.98;101271.09;5026277;28;20032;-73
2023/04/10 11:05:54;;;;;;;2.60;1.70;;;;;;;14.40;37.88;101266.84;5019188;28;20069;-73
2023/04/10 11:08:32;;;;;;;2.38;1.70;;;;;;;14.37;38.92;101267.16;5027281;28;20029;-73
2023/04/10 11:11:06;;;;;;;2.13;0.90;;;;;;;14.17;39.00;101258.63;5030093;28;20064;-73
2023/04/10 11:13:32;;;;;;;1.27;0.60;;;;;;;14.45;38.53;101256.78;5029230;28;20033;-70
2023/04/10 11:16:01;;;;;;;2.10;1.40;;;;;;;14.44;38.70;101257.75;5027123;28;20040;-73
2023/04/10 11:18:44;;;;;;;1.55;0.80;;;;;;;14.43;40.17;101248.22;5030250;28;20029;-73
2023/04/10 11:21:28;;;;;;;2.10;1.30;;;;;;;14.51;40.93;101248.31;5030433;28;20040;-72
2023/04/10 11:23:56;;;;;;;13.73;9.60;;;;;;;14.62;41.16;101245.47;5029452;28;20056;-73
2023/04/10 11:26:34;;;;;;;1.45;0.80;;;;;;;14.81;40.67;101245.25;5039267;28;20119;-72
2023/04/10 11:29:03;;;;;;;1.00;0.60;;;;;;;15.07;39.34;101239.22;5044636;28;20502;-73
2023/04/10 11:31:30;;;;;;;1.75;0.93;;;;;;;15.02;39.97;101236.22;5024354;28;20371;-73
2023/04/10 11:33:56;;;;;;;1.50;0.73;;;;;;;14.92;39.95;101237.16;5031570;28;21273;-73